createdAt,value
2022-07-27T00:01:50.594Z,265.70
2022-07-27T00:04:18.594Z,303.60
2022-07-27T00:06:45.602Z,282.02
2022-07-27T00:09:12.703Z,305.15
2022-07-27T00:11:39.678Z,277.23
2022-07-27T00:14:06.342Z,277.02
2022-07-27T00:16:33.147Z,280.48
2022-07-27T00:19:00.169Z,253.02
2022-07-27T00:21:27.021Z,267.90
2022-07-27T00:23:54.680Z,236.13
2022-07-27T00:26:21.625Z,260.00
2022-07-27T00:28:49.051Z,257.27
2022-07-27T00:31:16.225Z,250.15
2022-07-27T00:33:43.064Z,262.60
2022-07-27T00:36:10.047Z,250.35
2022-07-27T00:38:36.721Z,234.23
2022-07-27T00:41:03.457Z,201.35
2022-07-27T00:43:30.375Z,185.57
2022-07-27T00:45:57.016Z,212.93
2022-07-27T00:48:23.654Z,188.98
2022-07-27T00:50:51.890Z,177.50
2022-07-27T00:53:18.501Z,164.85
2022-07-27T00:55:45.888Z,185.25
2022-07-27T00:58:12.605Z,191.88
2022-07-27T01:00:39.760Z,190.47
2022-07-27T01:03:08.641Z,178.77
2022-07-27T01:05:40.033Z,184.63
2022-07-27T01:08:12.566Z,211.45
2022-07-27T01:10:40.610Z,202.10
2022-07-27T01:13:12.500Z,198.50
2022-07-27T01:15:41.382Z,186.65
2022-07-27T01:18:27.159Z,181.00
2022-07-27T01:20:54.299Z,165.83
2022-07-27T01:23:21.576Z,151.25
2022-07-27T01:25:48.452Z,163.20
2022-07-27T01:28:15.123Z,150.38
2022-07-27T01:30:41.772Z,147.85
2022-07-27T01:33:10.068Z,154.93
2022-07-27T01:35:38.761Z,166.33
2022-07-27T01:38:07.069Z,163.88
2022-07-27T01:40:36.363Z,163.05
2022-07-27T01:43:05.181Z,169.02
2022-07-27T01:45:31.827Z,157.48
2022-07-27T01:47:58.570Z,183.43
2022-07-27T01:50:25.206Z,190.88
2022-07-27T01:52:51.809Z,183.23
2022-07-27T01:55:18.412Z,163.40
2022-07-27T01:57:44.985Z,151.27
2022-07-27T02:00:12.424Z,152.68
2022-07-27T02:02:40.056Z,156.82
2022-07-27T02:05:08.230Z,157.55
2022-07-27T02:07:34.859Z,149.88
2022-07-27T02:10:01.694Z,124.05
2022-07-27T02:12:36.673Z,128.10
2022-07-27T02:15:06.232Z,125.13
2022-07-27T02:17:33.314Z,130.38
2022-07-27T02:20:02.348Z,131.27
2022-07-27T02:22:29.103Z,120.47
2022-07-27T02:24:56.099Z,109.40
2022-07-27T02:27:22.930Z,97.85
2022-07-27T02:29:49.682Z,97.00
2022-07-27T02:32:16.425Z,91.60
2022-07-27T02:34:43.271Z,94.25
2022-07-27T02:37:10.064Z,120.00
2022-07-27T02:39:36.959Z,152.88
2022-07-27T02:42:04.082Z,156.32
2022-07-27T02:44:30.768Z,173.20
2022-07-27T02:46:57.458Z,175.73
2022-07-27T02:49:24.208Z,171.45
2022-07-27T02:51:52.786Z,171.23
2022-07-27T02:54:25.153Z,158.48
2022-07-27T02:56:53.132Z,159.65
2022-07-27T02:59:20.771Z,165.20
2022-07-27T03:01:48.073Z,210.02
2022-07-27T03:04:15.767Z,273.98
2022-07-27T03:06:43.090Z,283.20
2022-07-27T03:09:10.412Z,263.17
2022-07-27T03:11:37.927Z,235.90
2022-07-27T03:14:04.830Z,250.75
2022-07-27T03:16:31.565Z,228.88
2022-07-27T03:18:58.749Z,236.00
2022-07-27T03:21:25.483Z,187.53
2022-07-27T03:23:52.282Z,198.60
2022-07-27T03:26:19.285Z,226.10
2022-07-27T03:28:46.022Z,228.45
2022-07-27T03:31:12.752Z,220.00
2022-07-27T03:33:39.387Z,229.40
2022-07-27T03:36:07.249Z,243.02
2022-07-27T03:38:33.865Z,299.35
2022-07-27T03:41:00.525Z,549.97
2022-07-27T03:43:27.169Z,636.63
2022-07-27T03:45:53.821Z,607.42
2022-07-27T03:48:20.440Z,583.92
2022-07-27T03:50:47.045Z,581.00
2022-07-27T03:53:13.756Z,572.72
2022-07-27T03:55:40.466Z,557.45
2022-07-27T03:58:07.193Z,581.20
2022-07-27T04:00:33.820Z,541.67
2022-07-27T04:03:00.540Z,551.40
2022-07-27T04:05:29.360Z,561.15
2022-07-27T04:07:56.867Z,572.72
2022-07-27T04:10:24.987Z,539.15
2022-07-27T04:12:56.029Z,528.47
2022-07-27T04:15:23.291Z,514.50
2022-07-27T04:17:55.407Z,553.33
2022-07-27T04:20:24.551Z,549.28
2022-07-27T04:22:51.321Z,538.60
2022-07-27T04:25:18.178Z,534.28
2022-07-27T04:27:44.798Z,527.05
2022-07-27T04:30:12.033Z,494.83
2022-07-27T04:32:39.186Z,507.55
2022-07-27T04:35:07.360Z,482.45
2022-07-27T04:37:35.050Z,459.58
2022-07-27T04:40:02.041Z,446.40
2022-07-27T04:42:29.947Z,429.98
2022-07-27T04:44:57.021Z,414.50
2022-07-27T04:47:24.189Z,448.83
2022-07-27T04:49:50.964Z,503.77
2022-07-27T04:52:17.653Z,598.13
2022-07-27T04:54:45.855Z,509.63
2022-07-27T04:57:12.494Z,498.85
2022-07-27T04:59:39.085Z,470.20
2022-07-27T05:02:05.791Z,483.77
2022-07-27T05:04:32.538Z,483.83
2022-07-27T05:06:59.212Z,471.38
2022-07-27T05:09:25.910Z,480.35
2022-07-27T05:11:53.242Z,460.05
2022-07-27T05:14:21.340Z,404.48
2022-07-27T05:16:49.224Z,398.05
2022-07-27T05:19:16.128Z,340.70
2022-07-27T05:21:43.065Z,279.17
2022-07-27T05:24:10.178Z,245.15
2022-07-27T05:26:37.647Z,252.23
2022-07-27T05:29:04.758Z,245.50
2022-07-27T05:31:31.483Z,242.48
2022-07-27T05:33:58.646Z,251.70
2022-07-27T05:36:27.361Z,220.80
2022-07-27T05:38:54.118Z,205.68
2022-07-27T05:41:24.831Z,214.23
2022-07-27T05:43:52.077Z,207.52
2022-07-27T05:46:18.754Z,202.10
2022-07-27T05:48:45.564Z,208.13
2022-07-27T05:51:12.223Z,211.15
2022-07-27T05:53:39.402Z,210.52
2022-07-27T05:56:09.114Z,210.80
2022-07-27T05:58:35.778Z,205.00
2022-07-27T06:01:02.601Z,211.38
2022-07-27T06:03:29.496Z,198.55
2022-07-27T06:06:16.120Z,203.23
2022-07-27T06:08:42.898Z,214.25
2022-07-27T06:11:09.686Z,222.75
2022-07-27T06:13:37.113Z,249.02
2022-07-27T06:16:11.435Z,222.13
2022-07-27T06:18:38.488Z,241.50
2022-07-27T06:21:05.784Z,235.93
2022-07-27T06:23:32.659Z,231.52
2022-07-27T06:26:00.422Z,160.15
2022-07-27T06:28:27.060Z,164.82
2022-07-27T06:30:53.776Z,143.98
2022-07-27T06:33:30.852Z,173.40
2022-07-27T06:35:59.649Z,133.23
2022-07-27T06:38:28.861Z,163.75
2022-07-27T06:40:56.036Z,146.02
2022-07-27T06:43:28.431Z,148.52
2022-07-27T06:45:55.252Z,187.85
2022-07-27T06:48:22.559Z,233.93
2022-07-27T06:50:49.963Z,231.43
2022-07-27T06:53:20.881Z,216.38
2022-07-27T06:55:47.987Z,218.02
2022-07-27T06:58:17.162Z,221.10
2022-07-27T07:00:43.989Z,232.90
2022-07-27T07:03:11.421Z,229.25
2022-07-27T07:05:44.282Z,214.75
2022-07-27T07:08:12.093Z,233.25
2022-07-27T07:10:40.319Z,238.75
2022-07-27T07:13:08.087Z,252.63
2022-07-27T07:15:38.611Z,257.48
2022-07-27T07:18:06.698Z,276.35
2022-07-27T07:20:35.275Z,271.05
2022-07-27T07:23:02.045Z,259.77
2022-07-27T07:25:29.259Z,276.95
2022-07-27T07:27:56.614Z,251.38
2022-07-27T07:30:23.810Z,251.32
2022-07-27T07:32:50.544Z,261.17
2022-07-27T07:35:17.493Z,269.02
2022-07-27T07:37:50.605Z,266.77
2022-07-27T07:40:42.698Z,260.67
2022-07-27T07:43:08.355Z,246.13
2022-07-27T07:45:50.782Z,259.60
2022-07-27T07:48:19.648Z,270.88
2022-07-27T07:50:46.361Z,268.05
2022-07-27T07:53:19.916Z,265.23
2022-07-27T07:55:46.601Z,270.27
2022-07-27T07:58:15.715Z,280.52
2022-07-27T08:00:43.794Z,262.97
2022-07-27T08:03:10.657Z,250.00
2022-07-27T08:05:37.675Z,284.02
2022-07-27T08:08:04.591Z,267.80
2022-07-27T08:10:31.567Z,253.85
2022-07-27T08:12:58.430Z,272.08
2022-07-27T08:15:35.340Z,266.23
2022-07-27T08:18:06.950Z,241.10
2022-07-27T08:20:34.116Z,254.35
2022-07-27T08:23:01.443Z,253.75
2022-07-27T08:25:28.287Z,256.23
2022-07-27T08:27:55.500Z,261.98
2022-07-27T08:30:23.782Z,256.15
2022-07-27T08:32:59.776Z,289.50
2022-07-27T08:35:28.083Z,235.43
2022-07-27T08:37:55.864Z,249.57
2022-07-27T08:40:42.628Z,239.45
2022-07-27T08:43:18.967Z,257.48
2022-07-27T08:45:55.641Z,249.30
2022-07-27T08:48:25.593Z,253.27
2022-07-27T08:50:52.737Z,240.90
2022-07-27T08:53:19.727Z,241.82
2022-07-27T08:55:47.666Z,253.73
2022-07-27T08:58:16.066Z,248.10
2022-07-27T09:00:45.169Z,266.80
2022-07-27T09:03:18.896Z,283.63
2022-07-27T09:05:49.536Z,270.10
2022-07-27T09:08:21.339Z,229.48
2022-07-27T09:10:48.493Z,237.75
2022-07-27T09:13:34.567Z,226.60
2022-07-27T09:16:20.839Z,175.82
2022-07-27T09:19:01.436Z,187.73
2022-07-27T09:21:28.513Z,179.88
2022-07-27T09:24:23.551Z,184.77
2022-07-27T09:27:03.170Z,170.55
2022-07-27T09:29:34.728Z,157.73
2022-07-27T09:32:14.496Z,166.57
2022-07-27T09:34:41.387Z,146.20
2022-07-27T09:37:09.410Z,128.27
2022-07-27T09:39:35.998Z,129.37
2022-07-27T09:42:03.264Z,93.30
2022-07-27T09:44:43.136Z,105.20
2022-07-27T09:47:22.955Z,109.97
2022-07-27T09:49:49.712Z,92.68
2022-07-27T09:52:28.736Z,87.90
2022-07-27T09:55:03.043Z,85.03
2022-07-27T09:57:29.885Z,57.35
2022-07-27T10:00:13.934Z,51.92
2022-07-27T10:02:42.860Z,43.55
2022-07-27T10:05:10.502Z,36.07
2022-07-27T10:07:38.205Z,33.15
2022-07-27T10:10:05.320Z,27.20
2022-07-27T10:12:32.661Z,30.02
2022-07-27T10:14:59.471Z,28.02
2022-07-27T10:17:26.976Z,29.98
2022-07-27T10:19:56.873Z,27.52
2022-07-27T10:22:52.172Z,18.35
2022-07-27T10:25:20.054Z,17.95
2022-07-27T10:27:49.218Z,14.50
2022-07-27T10:30:23.919Z,9.32
2022-07-27T10:32:57.011Z,10.20
2022-07-27T10:35:34.270Z,11.60
2022-07-27T10:38:16.707Z,11.20
2022-07-27T10:40:44.183Z,10.52
2022-07-27T10:43:22.248Z,7.95
2022-07-27T10:46:01.634Z,6.60
2022-07-27T10:48:37.447Z,7.22
2022-07-27T10:51:08.511Z,8.68
2022-07-27T10:54:10.507Z,8.55
2022-07-27T10:56:47.358Z,8.17
2022-07-27T10:59:14.517Z,9.82
2022-07-27T11:01:58.055Z,10.27
2022-07-27T11:04:24.935Z,11.52
2022-07-27T11:07:23.986Z,12.20
2022-07-27T11:10:06.296Z,14.52
2022-07-27T11:12:34.786Z,11.60
2022-07-27T11:15:01.578Z,12.60
2022-07-27T11:17:52.847Z,8.85
2022-07-27T11:20:22.796Z,10.83
2022-07-27T11:25:36.073Z,14.98
2022-07-27T11:28:09.541Z,11.65
2022-07-27T11:30:36.514Z,10.75
2022-07-27T11:33:05.991Z,10.23
2022-07-27T11:35:32.739Z,11.65
2022-07-27T11:38:05.686Z,10.52
2022-07-27T11:43:36.744Z,10.15
2022-07-27T11:46:27.378Z,11.30
2022-07-27T11:49:09.624Z,11.63
2022-07-27T11:51:49.114Z,11.13
2022-07-27T11:54:26.556Z,9.20
2022-07-27T11:56:57.705Z,11.90
2022-07-27T11:59:28.754Z,9.05
2022-07-27T12:01:56.955Z,9.70
2022-07-27T12:04:25.324Z,7.90
2022-07-27T12:06:57.438Z,9.75
2022-07-27T12:09:25.407Z,9.38
2022-07-27T12:12:01.405Z,9.23
2022-07-27T12:14:58.038Z,12.30
2022-07-27T12:17:35.685Z,11.30
2022-07-27T12:20:10.495Z,9.23
2022-07-27T12:22:46.172Z,8.45
2022-07-27T12:25:18.995Z,7.47
2022-07-27T12:27:59.257Z,7.65
2022-07-27T12:30:44.918Z,7.47
2022-07-27T12:33:39.695Z,8.07
2022-07-27T12:36:09.475Z,9.65
2022-07-27T12:38:43.725Z,12.40
2022-07-27T12:41:11.536Z,13.47
2022-07-27T12:43:38.477Z,10.52
2022-07-27T12:46:13.457Z,13.60
2022-07-27T12:48:42.236Z,18.30
2022-07-27T12:51:10.203Z,19.27
2022-07-27T12:53:38.188Z,16.10
2022-07-27T12:56:08.115Z,16.92
2022-07-27T12:58:36.038Z,16.42
2022-07-27T13:01:03.158Z,16.77
2022-07-27T13:03:29.930Z,16.30
2022-07-27T13:05:56.817Z,13.68
2022-07-27T13:08:23.564Z,18.38
2022-07-27T13:10:52.259Z,16.45
2022-07-27T13:13:24.297Z,17.20
2022-07-27T13:15:50.995Z,17.77
2022-07-27T13:18:23.159Z,22.27
2022-07-27T13:20:51.508Z,32.70
2022-07-27T13:23:18.336Z,41.38
2022-07-27T13:25:45.192Z,57.70
2022-07-27T13:28:12.224Z,75.13
2022-07-27T13:30:39.020Z,76.60
2022-07-27T13:33:05.747Z,95.97
2022-07-27T13:35:32.459Z,120.53
2022-07-27T13:37:59.506Z,174.60
2022-07-27T13:40:26.293Z,216.38
2022-07-27T13:42:53.065Z,249.20
2022-07-27T13:45:19.778Z,270.92
2022-07-27T13:47:46.470Z,273.98
2022-07-27T13:50:18.260Z,266.35
2022-07-27T13:52:47.314Z,220.47
2022-07-27T13:55:15.507Z,244.70
2022-07-27T13:57:42.633Z,280.67
2022-07-27T14:00:10.249Z,429.65
2022-07-27T14:02:36.983Z,460.58
2022-07-27T14:05:06.014Z,483.52
2022-07-27T14:07:33.867Z,536.60
2022-07-27T14:10:19.308Z,539.75
2022-07-27T14:12:46.054Z,540.75
2022-07-27T14:15:13.147Z,504.45
2022-07-27T14:17:39.917Z,492.00
2022-07-27T14:20:07.255Z,465.70
2022-07-27T14:22:34.030Z,431.13
2022-07-27T14:25:00.679Z,444.92
2022-07-27T14:27:33.602Z,441.77
2022-07-27T14:30:06.984Z,449.75
2022-07-27T14:32:34.826Z,409.83
2022-07-27T14:35:01.740Z,398.20
2022-07-27T14:37:28.389Z,409.98
2022-07-27T14:39:55.030Z,410.67
2022-07-27T14:42:23.903Z,395.47
2022-07-27T14:44:50.529Z,426.63
2022-07-27T14:47:17.345Z,413.88
2022-07-27T14:49:44.144Z,411.17
2022-07-27T14:52:13.588Z,397.65
2022-07-27T14:54:45.427Z,435.08
2022-07-27T14:57:12.370Z,434.60
2022-07-27T14:59:40.084Z,385.90
2022-07-27T15:02:07.670Z,346.95
2022-07-27T15:04:34.559Z,352.93
2022-07-27T15:07:02.025Z,323.97
2022-07-27T15:09:30.280Z,298.85
2022-07-27T15:11:58.391Z,292.38
2022-07-27T15:14:25.346Z,227.95
2022-07-27T15:16:53.613Z,250.88
2022-07-27T15:19:22.898Z,223.43
2022-07-27T15:21:49.688Z,204.93
2022-07-27T15:24:16.725Z,173.50
2022-07-27T15:26:43.382Z,172.18
2022-07-27T15:29:14.770Z,176.60
2022-07-27T15:31:41.759Z,180.03
2022-07-27T15:34:08.489Z,174.43
2022-07-27T15:36:37.692Z,174.45
2022-07-27T15:39:09.894Z,171.73
2022-07-27T15:41:37.769Z,180.15
2022-07-27T15:44:06.003Z,170.02
2022-07-27T15:46:41.016Z,191.88
2022-07-27T15:49:09.065Z,181.97
2022-07-27T15:51:36.055Z,159.70
2022-07-27T15:54:02.693Z,155.23
2022-07-27T15:56:29.427Z,166.43
2022-07-27T15:58:56.162Z,162.98
2022-07-27T16:01:22.882Z,140.32
2022-07-27T16:04:01.893Z,126.13
2022-07-27T16:06:29.279Z,119.03
2022-07-27T16:08:56.365Z,127.38
2022-07-27T16:11:23.030Z,121.47
2022-07-27T16:13:49.644Z,121.75
2022-07-27T16:16:22.253Z,99.03
2022-07-27T16:18:51.121Z,101.93
2022-07-27T16:21:21.738Z,94.53
2022-07-27T16:23:49.099Z,116.95
2022-07-27T16:26:16.006Z,93.93
2022-07-27T16:28:45.781Z,95.93
2022-07-27T16:31:18.653Z,95.13
2022-07-27T16:33:46.307Z,95.07
2022-07-27T16:36:13.248Z,83.97
2022-07-27T16:38:49.539Z,90.72
2022-07-27T16:41:18.983Z,95.55
2022-07-27T16:43:45.885Z,93.30
2022-07-27T16:46:12.743Z,87.75
2022-07-27T16:48:42.621Z,96.00
2022-07-27T16:51:11.889Z,93.78
2022-07-27T16:53:45.343Z,95.47
2022-07-27T16:56:14.585Z,96.82
2022-07-27T16:58:41.332Z,105.78
2022-07-27T17:01:15.131Z,87.68
2022-07-27T17:03:53.617Z,87.50
2022-07-27T17:06:21.020Z,81.45
2022-07-27T17:08:48.505Z,78.03
2022-07-27T17:11:17.504Z,74.60
2022-07-27T17:13:49.048Z,83.63
2022-07-27T17:16:18.600Z,61.70
2022-07-27T17:18:47.531Z,52.80
2022-07-27T17:21:14.639Z,62.03
2022-07-27T17:23:43.962Z,64.95
2022-07-27T17:26:12.466Z,37.70
2022-07-27T17:28:40.531Z,47.10
2022-07-27T17:31:12.725Z,55.70
2022-07-27T17:33:40.452Z,52.80
2022-07-27T17:36:12.265Z,58.30
2022-07-27T17:38:45.766Z,54.42
2022-07-27T17:41:14.215Z,57.30
2022-07-27T17:43:43.632Z,49.05
2022-07-27T17:46:11.474Z,45.97
2022-07-27T17:48:41.962Z,36.42
2022-07-27T17:51:12.427Z,19.08
2022-07-27T17:53:41.812Z,19.08
2022-07-27T17:56:11.039Z,29.87
2022-07-27T17:58:42.622Z,36.15
2022-07-27T18:01:09.482Z,30.23
2022-07-27T18:03:38.635Z,28.07
2022-07-27T18:06:05.421Z,24.15
2022-07-27T18:08:32.097Z,37.80
2022-07-27T18:11:03.875Z,23.83
2022-07-27T18:13:39.075Z,19.70
2022-07-27T18:16:08.004Z,19.60
2022-07-27T18:18:36.404Z,15.90
2022-07-27T18:21:08.867Z,14.07
2022-07-27T18:23:37.711Z,15.10
2022-07-27T18:26:05.169Z,12.30
2022-07-27T18:28:39.003Z,18.63
2022-07-27T18:31:06.583Z,30.02
2022-07-27T18:33:36.274Z,26.20
2022-07-27T18:36:03.947Z,22.08
2022-07-27T18:38:30.628Z,37.10
2022-07-27T18:40:57.368Z,44.78
2022-07-27T18:43:24.066Z,54.97
2022-07-27T18:45:51.107Z,63.95
2022-07-27T18:48:17.848Z,73.45
2022-07-27T18:50:45.868Z,80.45
2022-07-27T18:53:14.877Z,75.63
2022-07-27T18:55:41.671Z,81.25
2022-07-27T18:58:08.590Z,76.07
2022-07-27T19:00:35.334Z,85.90
2022-07-27T19:03:02.191Z,73.55
2022-07-27T19:05:40.804Z,79.80
2022-07-27T19:08:28.777Z,71.07
2022-07-27T19:10:55.420Z,74.25
2022-07-27T19:13:22.238Z,83.40
2022-07-27T19:15:51.640Z,77.88
2022-07-27T19:18:20.927Z,76.00
2022-07-27T19:20:50.219Z,75.38
2022-07-27T19:23:17.116Z,88.85
2022-07-27T19:25:50.747Z,90.55
2022-07-27T19:28:20.417Z,92.28
2022-07-27T19:30:49.864Z,97.32
2022-07-27T19:33:18.276Z,99.68
2022-07-27T19:35:45.009Z,108.72
2022-07-27T19:38:14.210Z,120.07
2022-07-27T19:40:45.301Z,111.35
2022-07-27T19:43:13.535Z,122.60
2022-07-27T19:45:41.079Z,130.95
2022-07-27T19:48:08.344Z,130.47
2022-07-27T19:50:35.290Z,127.53
2022-07-27T19:53:05.055Z,131.88
2022-07-27T19:55:31.683Z,135.80
2022-07-27T19:57:58.629Z,133.73
2022-07-27T20:00:25.295Z,140.88
2022-07-27T20:02:55.444Z,144.37
2022-07-27T20:05:22.200Z,139.43
2022-07-27T20:07:48.846Z,138.35
2022-07-27T20:10:15.603Z,154.83
2022-07-27T20:12:42.283Z,152.60
2022-07-27T20:15:09.267Z,150.65
2022-07-27T20:17:40.518Z,169.85
2022-07-27T20:20:08.610Z,149.32
2022-07-27T20:22:35.398Z,153.43
2022-07-27T20:25:02.671Z,149.75
2022-07-27T20:27:29.475Z,143.18
2022-07-27T20:29:56.154Z,139.65
2022-07-27T20:32:22.786Z,154.32
2022-07-27T20:34:49.521Z,138.43
2022-07-27T20:37:16.223Z,148.43
2022-07-27T20:39:42.862Z,149.40
2022-07-27T20:42:10.845Z,147.90
2022-07-27T20:44:37.623Z,139.75
2022-07-27T20:47:07.971Z,147.55
2022-07-27T20:49:34.716Z,141.95
2022-07-27T20:52:01.741Z,135.88
2022-07-27T20:54:29.088Z,149.38
2022-07-27T20:56:57.086Z,141.48
2022-07-27T20:59:24.177Z,145.07
2022-07-27T21:01:51.100Z,144.48
2022-07-27T21:04:27.035Z,149.05
2022-07-27T21:06:54.244Z,142.45
2022-07-27T21:09:22.049Z,153.55
2022-07-27T21:11:49.184Z,153.27
2022-07-27T21:14:15.969Z,144.77
2022-07-27T21:16:42.640Z,139.83
2022-07-27T21:19:10.262Z,154.23
2022-07-27T21:21:37.368Z,139.15
2022-07-27T21:24:18.542Z,140.00
2022-07-27T21:26:50.652Z,148.30
2022-07-27T21:29:18.125Z,159.07
2022-07-27T21:31:49.457Z,149.33
2022-07-27T21:34:22.995Z,160.00
2022-07-27T21:36:49.708Z,171.15
2022-07-27T21:39:17.972Z,172.43
2022-07-27T21:41:45.204Z,160.13
2022-07-27T21:44:12.303Z,164.05
2022-07-27T21:46:39.126Z,166.55
2022-07-27T21:49:05.837Z,158.97
2022-07-27T21:51:32.580Z,161.35
2022-07-27T21:53:59.365Z,176.05
2022-07-27T21:56:26.628Z,175.38
2022-07-27T21:58:53.355Z,167.80
2022-07-27T22:01:20.001Z,166.87
2022-07-27T22:03:46.886Z,171.48
2022-07-27T22:06:13.974Z,167.35
2022-07-27T22:08:40.589Z,177.47
2022-07-27T22:11:07.357Z,179.00
2022-07-27T22:13:34.281Z,188.80
2022-07-27T22:16:01.226Z,175.52
2022-07-27T22:18:29.891Z,168.30
2022-07-27T22:20:57.040Z,168.00
2022-07-27T22:23:24.011Z,175.40
2022-07-27T22:25:51.457Z,183.13
2022-07-27T22:28:18.085Z,189.38
2022-07-27T22:30:59.968Z,175.60
2022-07-27T22:33:31.427Z,170.95
2022-07-27T22:36:02.211Z,178.07
2022-07-27T22:38:31.308Z,172.60
2022-07-27T22:41:00.529Z,179.98
2022-07-27T22:43:29.241Z,167.38
2022-07-27T22:46:05.182Z,173.40
2022-07-27T22:48:33.848Z,173.18
2022-07-27T22:51:00.544Z,188.50
2022-07-27T22:53:27.155Z,183.80
2022-07-27T22:55:53.955Z,185.48
2022-07-27T22:58:20.762Z,183.80
2022-07-27T23:00:47.490Z,185.38
2022-07-27T23:03:14.413Z,190.13
2022-07-27T23:05:41.080Z,185.38
2022-07-27T23:08:07.811Z,193.67
2022-07-27T23:10:46.368Z,194.70
2022-07-27T23:13:17.968Z,199.00
2022-07-27T23:15:45.794Z,198.13
2022-07-27T23:18:13.137Z,192.02
2022-07-27T23:20:41.214Z,197.68
2022-07-27T23:23:15.432Z,204.13
2022-07-27T23:25:44.991Z,200.95
2022-07-27T23:28:11.831Z,192.65
2022-07-27T23:30:38.810Z,198.82
2022-07-27T23:33:05.449Z,202.55
2022-07-27T23:35:32.381Z,201.07
2022-07-27T23:38:00.247Z,198.00
2022-07-27T23:40:27.332Z,214.32
2022-07-27T23:42:54.103Z,214.38
2022-07-27T23:45:20.713Z,198.45
2022-07-27T23:47:47.355Z,199.70
2022-07-27T23:50:14.141Z,193.20
2022-07-27T23:52:40.915Z,194.13
2022-07-27T23:55:10.747Z,191.23
2022-07-27T23:57:37.457Z,188.35
